Time;durP1;ratioP1;P1;durP2;ratioP2;P2;SDS_P1;SDS_P2;PMS_P1;PMS_P2;Temp;Humidity;BMP_temperature;BMP_pressure;BME280_temperature;BME280_humidity;BME280_pressure;Samples;Min_cycle;Max_cycle;Signal;HPM_P1;HPM_P2
2022/11/08 05:30:25;;;;;;;1.00;0.53;;;14.40;83.50;;;;;;6137635;23;20021;31
2022/11/08 05:32:51;;;;;;;2.95;0.70;;;14.40;83.60;;;;;;4945697;29;20110;-78
2022/11/08 05:35:27;;;;;;;3.25;0.90;;;14.40;83.70;;;;;;4938380;29;20110;-80
2022/11/08 05:37:52;;;;;;;2.33;1.27;;;14.40;83.70;;;;;;4936628;29;20024;-79
2022/11/08 05:40:18;;;;;;;5.40;0.80;;;14.30;83.80;;;;;;4938780;29;20119;-78
2022/11/08 05:42:43;;;;;;;2.78;0.85;;;14.30;83.90;;;;;;4938818;29;20687;-80
2022/11/08 05:45:09;;;;;;;4.82;1.05;;;14.30;84.10;;;;;;4933565;29;20028;-80
2022/11/08 05:47:36;;;;;;;7.88;1.15;;;14.30;84.00;;;;;;4919747;29;20032;-81
2022/11/08 05:50:01;;;;;;;5.13;0.95;;;14.30;84.10;;;;;;4918504;29;20032;-77
2022/11/08 05:52:27;;;;;;;2.90;0.85;;;14.30;84.10;;;;;;4902723;29;20119;-78
2022/11/08 05:54:53;;;;;;;3.58;0.70;;;14.30;84.30;;;;;;4919098;29;20039;-79
2022/11/08 05:57:18;;;;;;;5.72;1.00;;;14.30;84.30;;;;;;4921940;29;20023;-78
2022/11/08 05:59:44;;;;;;;9.32;1.30;;;14.30;84.20;;;;;;4938561;29;20042;-81
2022/11/08 06:02:10;;;;;;;7.28;1.30;;;14.30;84.10;;;;;;4933980;29;20019;-78
2022/11/08 06:04:35;;;;;;;7.20;1.42;;;14.30;84.00;;;;;;4919661;29;20063;-78
2022/11/08 06:07:01;;;;;;;5.53;0.90;;;14.40;84.00;;;;;;4938590;29;20446;-78
2022/11/08 06:09:44;;;;;;;6.28;1.13;;;14.40;83.90;;;;;;4931402;29;20035;-82
2022/11/08 06:12:10;;;;;;;13.35;1.35;;;14.40;83.90;;;;;;4934621;29;20103;-78
2022/11/08 06:14:35;;;;;;;5.57;1.95;;;14.30;83.90;;;;;;4921757;29;20074;-78
2022/11/08 06:17:01;;;;;;;7.47;1.73;;;14.30;84.00;;;;;;4926288;29;20032;-79
2022/11/08 06:19:27;;;;;;;3.75;1.15;;;14.30;83.90;;;;;;4908384;29;20024;-78
2022/11/08 06:21:53;;;;;;;7.70;1.65;;;14.30;84.10;;;;;;4936310;29;20030;-78
2022/11/08 06:24:18;;;;;;;5.70;1.20;;;14.40;84.10;;;;;;4940426;29;20032;-78
2022/11/08 06:26:46;;;;;;;6.68;1.55;;;14.40;84.20;;;;;;4937783;29;20032;-77
2022/11/08 06:29:12;;;;;;;11.23;1.30;;;14.40;84.10;;;;;;4927597;29;20460;-78
2022/11/08 06:31:37;;;;;;;7.13;1.52;;;14.50;84.10;;;;;;4931079;29;20055;-78
2022/11/08 06:34:03;;;;;;;6.55;1.70;;;14.50;84.00;;;;;;4937099;29;20028;-78
2022/11/08 06:36:28;;;;;;;11.10;1.45;;;14.50;84.00;;;;;;4942827;29;20465;-78
2022/11/08 06:38:55;;;;;;;7.55;1.10;;;14.50;83.90;;;;;;4946750;29;20020;-78
2022/11/08 06:41:21;;;;;;;8.35;2.13;;;14.50;83.90;;;;;;4940377;28;20138;-78
2022/11/08 06:43:47;;;;;;;9.50;1.30;;;14.50;84.00;;;;;;4957749;28;20026;-78
2022/11/08 06:46:14;;;;;;;5.80;1.08;;;14.50;84.00;;;;;;4956825;29;20450;-78
2022/11/08 06:48:39;;;;;;;4.40;1.30;;;14.50;83.90;;;;;;4948552;29;20024;-78
2022/11/08 06:51:05;;;;;;;7.38;1.63;;;14.50;84.00;;;;;;4941526;29;20040;-80
2022/11/08 06:53:31;;;;;;;5.50;1.55;;;14.50;83.90;;;;;;4940234;29;20038;-78
2022/11/08 06:56:00;;;;;;;3.47;1.33;;;14.50;84.00;;;;;;4945835;29;20086;-79
2022/11/08 06:58:26;;;;;;;13.75;2.33;;;14.50;84.00;;;;;;4944086;29;20032;-77
2022/11/08 07:00:52;;;;;;;10.63;1.52;;;14.50;84.00;;;;;;4949183;29;20027;-78
2022/11/08 07:03:17;;;;;;;8.00;1.42;;;14.50;84.10;;;;;;4941710;29;20871;-78
2022/11/08 07:05:43;;;;;;;3.47;1.20;;;14.50;84.10;;;;;;4924897;29;20131;-78
2022/11/08 07:08:09;;;;;;;5.03;0.93;;;14.50;84.00;;;;;;4941800;29;20566;-78
2022/11/08 07:10:35;;;;;;;11.95;1.70;;;14.50;84.00;;;;;;4946333;29;20027;-77
2022/11/08 07:13:05;;;;;;;4.78;1.85;;;14.50;84.10;;;;;;4961075;29;20023;-78
2022/11/08 07:15:32;;;;;;;11.75;1.83;;;14.50;84.00;;;;;;4943807;29;20031;-78
2022/11/08 07:18:09;;;;;;;6.40;1.83;;;14.50;84.10;;;;;;4941622;29;20024;-78
2022/11/08 07:20:35;;;;;;;14.73;2.35;;;14.50;84.10;;;;;;4941786;29;20059;-78
2022/11/08 07:23:01;;;;;;;7.22;1.40;;;14.50;84.20;;;;;;4940004;29;20031;-78
2022/11/08 07:25:28;;;;;;;9.27;1.42;;;14.60;84.10;;;;;;4941550;29;20616;-78
2022/11/08 07:27:54;;;;;;;11.68;1.42;;;14.60;83.90;;;;;;4960814;29;20031;-78
2022/11/08 07:30:20;;;;;;;6.78;1.77;;;14.60;84.10;;;;;;4960567;29;20075;-77
2022/11/08 07:32:46;;;;;;;9.23;1.83;;;14.60;84.20;;;;;;4960758;29;20035;-78
2022/11/08 07:35:11;;;;;;;12.77;2.42;;;14.60;84.10;;;;;;4946691;29;20050;-78
2022/11/08 07:37:37;;;;;;;12.63;1.50;;;14.60;84.10;;;;;;4941547;29;20444;-78
2022/11/08 07:40:03;;;;;;;10.32;2.33;;;14.60;84.10;;;;;;4941122;29;20423;-78
2022/11/08 07:42:28;;;;;;;6.22;1.38;;;14.60;84.00;;;;;;4941338;29;20027;-78
2022/11/08 07:44:54;;;;;;;9.13;1.50;;;14.60;84.10;;;;;;4945276;29;20020;-77
2022/11/08 07:47:20;;;;;;;7.22;1.88;;;14.60;84.10;;;;;;4943169;29;20028;-78
2022/11/08 07:49:45;;;;;;;9.75;2.05;;;14.60;84.10;;;;;;4941181;29;20452;-78
2022/11/08 07:52:11;;;;;;;12.23;1.63;;;14.60;84.20;;;;;;4941074;29;20111;-78
2022/11/08 07:54:36;;;;;;;9.35;2.15;;;14.70;84.10;;;;;;4939840;29;20091;-79
2022/11/08 07:57:02;;;;;;;10.35;2.00;;;14.70;84.00;;;;;;4951294;29;20150;-79
2022/11/08 07:59:28;;;;;;;9.75;2.20;;;14.70;84.10;;;;;;4941006;29;20028;-78
2022/11/08 08:01:53;;;;;;;7.78;1.85;;;14.70;84.10;;;;;;4940477;29;20032;-78
2022/11/08 08:04:19;;;;;;;5.25;1.50;;;14.70;84.10;;;;;;4940843;29;20019;-78
2022/11/08 08:06:45;;;;;;;11.63;1.60;;;14.80;84.00;;;;;;4941031;29;20039;-78
2022/11/08 08:09:10;;;;;;;11.07;1.70;;;14.80;83.90;;;;;;4940705;29;20043;-78
2022/11/08 08:11:36;;;;;;;11.30;2.08;;;14.90;83.90;;;;;;4953278;29;20031;-78
2022/11/08 08:14:01;;;;;;;10.75;2.08;;;14.90;83.80;;;;;;4959918;29;20035;-78
2022/11/08 08:16:27;;;;;;;12.32;1.77;;;14.90;83.70;;;;;;4959895;29;20034;-78
2022/11/08 08:18:53;;;;;;;12.27;2.17;;;14.90;83.70;;;;;;4947655;29;20027;-78
2022/11/08 08:21:18;;;;;;;13.00;1.80;;;14.90;83.80;;;;;;4952227;29;20530;-78
2022/11/08 08:23:44;;;;;;;9.73;1.60;;;14.90;83.60;;;;;;4940679;29;20136;-79
2022/11/08 08:26:09;;;;;;;9.57;2.03;;;15.00;83.60;;;;;;4940560;29;20132;-78
2022/11/08 08:28:35;;;;;;;8.77;2.67;;;15.00;83.70;;;;;;4940333;29;20099;-79
2022/11/08 08:31:01;;;;;;;9.77;1.80;;;15.10;83.40;;;;;;4939353;29;20055;-78
2022/11/08 08:33:26;;;;;;;6.65;1.85;;;15.10;83.50;;;;;;4938841;29;20950;-78
2022/11/08 08:35:52;;;;;;;11.07;2.03;;;15.10;83.60;;;;;;4939347;29;20064;-78
2022/11/08 08:38:18;;;;;;;13.68;2.13;;;15.10;83.50;;;;;;4947419;28;20035;-78
2022/11/08 08:40:44;;;;;;;11.40;1.92;;;15.00;83.30;;;;;;4958235;29;20581;-79
2022/11/08 08:43:10;;;;;;;17.55;2.40;;;15.10;83.40;;;;;;4959507;29;20027;-78
2022/11/08 08:45:35;;;;;;;8.88;2.17;;;15.20;83.30;;;;;;4959280;29;20042;-78
2022/11/08 08:48:01;;;;;;;14.27;3.40;;;15.20;83.20;;;;;;4942517;29;20031;-78
2022/11/08 08:50:29;;;;;;;9.93;1.88;;;15.20;83.10;;;;;;4957988;29;20037;-78
2022/11/08 08:52:59;;;;;;;11.93;3.13;;;15.20;83.10;;;;;;4959323;29;20027;-78
2022/11/08 08:55:25;;;;;;;15.88;3.00;;;15.30;83.10;;;;;;4959165;29;20035;-78
2022/11/08 08:57:51;;;;;;;10.75;2.40;;;15.30;82.80;;;;;;4959258;29;20039;-78
2022/11/08 09:00:16;;;;;;;12.90;2.33;;;15.30;82.90;;;;;;4941590;29;20034;-78
2022/11/08 09:02:43;;;;;;;14.15;3.28;;;15.30;82.90;;;;;;4954045;29;20079;-78
2022/11/08 09:05:10;;;;;;;7.25;2.00;;;15.40;82.70;;;;;;4939772;29;20059;-78
2022/11/08 09:07:36;;;;;;;9.48;1.95;;;15.40;82.70;;;;;;4951019;29;20050;-77
2022/11/08 09:10:03;;;;;;;11.20;1.65;;;15.40;82.70;;;;;;4959209;29;20083;-78
2022/11/08 09:12:28;;;;;;;16.75;2.13;;;15.50;82.50;;;;;;4958215;28;20114;-77
2022/11/08 09:14:55;;;;;;;12.98;2.42;;;15.50;82.40;;;;;;4956176;29;20058;-78
2022/11/08 09:17:20;;;;;;;12.98;2.63;;;15.50;82.10;;;;;;4938731;29;20118;-77
2022/11/08 09:19:46;;;;;;;12.77;1.98;;;15.50;82.20;;;;;;4938454;29;20062;-78
2022/11/08 09:22:12;;;;;;;14.63;2.40;;;15.60;81.90;;;;;;4939541;29;20076;-77
2022/11/08 09:24:37;;;;;;;6.85;1.40;;;15.60;81.70;;;;;;4955707;29;20102;-77
2022/11/08 09:27:03;;;;;;;12.02;1.98;;;15.70;80.90;;;;;;4950344;29;20039;-78
2022/11/08 09:29:32;;;;;;;11.38;1.95;;;15.70;80.80;;;;;;4922315;29;20079;-78
2022/11/08 09:31:59;;;;;;;15.35;2.05;;;15.80;80.60;;;;;;4939198;29;20058;-79
2022/11/08 09:34:25;;;;;;;6.25;1.77;;;15.80;80.00;;;;;;4939025;29;20563;-78
2022/11/08 09:36:51;;;;;;;10.75;2.05;;;15.90;79.90;;;;;;4939483;29;20038;-79
2022/11/08 09:39:17;;;;;;;7.03;1.52;;;15.90;79.70;;;;;;4938234;29;20027;-78
2022/11/08 09:41:45;;;;;;;11.27;2.13;;;15.90;79.30;;;;;;4939280;29;20034;-78
2022/11/08 09:44:20;;;;;;;7.15;1.65;;;15.90;78.80;;;;;;4922208;29;20079;-78
2022/11/08 09:46:56;;;;;;;5.20;1.08;;;15.90;78.60;;;;;;4938931;29;20503;-78
2022/11/08 09:49:53;;;;;;;10.02;1.58;;;16.00;78.30;;;;;;4937767;29;20038;-78
2022/11/08 09:52:23;;;;;;;3.45;1.00;;;16.00;77.60;;;;;;4937741;29;20051;-77
2022/11/08 09:54:52;;;;;;;8.18;1.45;;;15.90;77.30;;;;;;4937717;29;20070;-78
2022/11/08 09:57:49;;;;;;;8.48;1.85;;;16.00;77.10;;;;;;4938938;29;20042;-77
2022/11/08 10:00:15;;;;;;;5.93;1.75;;;15.90;77.00;;;;;;4937806;29;20500;-78
2022/11/08 10:02:41;;;;;;;5.18;1.13;;;16.00;76.90;;;;;;4938998;29;20051;-77
2022/11/08 10:05:14;;;;;;;9.98;1.45;;;15.90;77.00;;;;;;4937527;29;20032;-77
2022/11/08 10:07:59;;;;;;;5.90;1.13;;;16.00;76.70;;;;;;4938891;29;20028;-77
2022/11/08 10:10:39;;;;;;;14.57;1.92;;;16.00;76.40;;;;;;4938572;29;20020;-78
2022/11/08 10:13:22;;;;;;;10.18;2.10;;;16.00;76.70;;;;;;4937937;29;20506;-78
2022/11/08 10:16:33;;;;;;;6.25;1.42;;;16.10;76.60;;;;;;4919631;29;20949;-78
2022/11/08 10:19:48;;;;;;;9.48;1.80;;;16.10;76.50;;;;;;4929324;29;20048;-78
2022/11/08 10:22:28;;;;;;;8.20;1.52;;;16.10;76.60;;;;;;4933736;29;20084;-78
2022/11/08 10:24:59;;;;;;;6.82;1.10;;;16.20;76.90;;;;;;4937303;29;20480;-77
2022/11/08 10:27:39;;;;;;;9.82;1.33;;;16.20;77.00;;;;;;4938673;29;20060;-78
2022/11/08 10:30:12;;;;;;;;;;;16.30;76.90;;;;;;4921809;29;20063;-77
2022/11/08 10:32:38;;;;;;;8.88;1.10;;;16.30;76.70;;;;;;4936319;29;20005;-78
2022/11/08 10:35:20;;;;;;;4.10;1.92;;;16.30;76.70;;;;;;4919196;29;20060;-78
2022/11/08 10:37:50;;;;;;;5.63;1.60;;;16.30;76.50;;;;;;4919675;29;20092;-78
2022/11/08 10:40:16;;;;;;;9.52;1.70;;;16.30;76.50;;;;;;4925692;29;20403;-78
2022/11/08 10:42:51;;;;;;;7.65;1.73;;;16.40;76.70;;;;;;4919546;29;20032;-78
2022/11/08 10:45:17;;;;;;;8.57;1.63;;;16.50;76.50;;;;;;4933373;29;20060;-78
2022/11/08 10:47:45;;;;;;;10.88;2.03;;;16.40;76.30;;;;;;4957542;29;20427;-78
2022/11/08 10:50:17;;;;;;;12.13;2.67;;;16.40;76.50;;;;;;4932739;29;20043;-79
2022/11/08 10:53:00;;;;;;;8.98;1.77;;;16.40;76.60;;;;;;4918055;29;20112;-78
2022/11/08 10:55:27;;;;;;;11.20;2.10;;;16.50;76.30;;;;;;4918042;29;20040;-78
2022/11/08 10:57:53;;;;;;;8.35;1.83;;;16.50;76.30;;;;;;4949604;29;20016;-79
2022/11/08 11:00:18;;;;;;;17.60;2.40;;;16.50;76.20;;;;;;4921346;29;20039;-78
2022/11/08 11:02:49;;;;;;;14.95;2.30;;;16.40;76.20;;;;;;4938258;29;20080;-78
2022/11/08 11:05:14;;;;;;;14.63;2.47;;;16.50;76.60;;;;;;4919936;29;20040;-78
2022/11/08 11:07:45;;;;;;;7.75;1.60;;;16.50;76.60;;;;;;4937132;29;20112;-78
2022/11/08 11:10:23;;;;;;;13.98;1.83;;;16.60;76.60;;;;;;4937129;29;20465;-78
2022/11/08 11:12:57;;;;;;;7.22;1.67;;;16.70;76.50;;;;;;4938144;29;20024;-78
2022/11/08 11:15:22;;;;;;;16.17;2.10;;;16.70;76.20;;;;;;4931844;29;20036;-79
2022/11/08 11:17:48;;;;;;;10.38;2.15;;;16.70;76.30;;;;;;4928050;29;20075;-79
2022/11/08 11:20:21;;;;;;;18.20;2.42;;;16.60;76.10;;;;;;4920633;29;20036;-79
2022/11/08 11:22:47;;;;;;;16.52;2.65;;;16.70;76.40;;;;;;4918965;29;20496;-78
2022/11/08 11:25:16;;;;;;;13.40;2.75;;;16.80;75.90;;;;;;4918821;29;20067;-79
2022/11/08 11:27:42;;;;;;;14.02;1.92;;;16.90;75.70;;;;;;4919133;29;20024;-78
2022/11/08 11:30:31;;;;;;;13.52;1.80;;;17.00;75.50;;;;;;4918652;29;20597;-78
2022/11/08 11:33:20;;;;;;;9.13;1.30;;;17.00;74.50;;;;;;4937971;29;20035;-78
2022/11/08 11:36:10;;;;;;;14.73;2.42;;;17.00;74.30;;;;;;4939584;29;20459;-79
2022/11/08 11:38:43;;;;;;;13.98;2.33;;;17.00;74.40;;;;;;4941084;29;20073;-78
2022/11/08 11:41:15;;;;;;;11.02;2.20;;;17.00;74.00;;;;;;4941386;29;20053;-78
2022/11/08 11:43:59;;;;;;;14.65;2.13;;;17.00;74.10;;;;;;4941455;29;20058;-78
2022/11/08 11:46:36;;;;;;;10.43;1.60;;;17.00;74.20;;;;;;4955241;29;20035;-79
2022/11/08 11:49:12;;;;;;;8.80;2.03;;;17.00;73.70;;;;;;4960154;29;20027;-78
2022/11/08 11:51:37;;;;;;;12.38;2.00;;;17.10;74.00;;;;;;4960364;29;20102;-78
2022/11/08 11:54:06;;;;;;;17.75;2.08;;;17.00;74.20;;;;;;4959319;29;20058;-78
2022/11/08 11:56:32;;;;;;;12.63;2.83;;;17.10;73.80;;;;;;4960236;29;20027;-78
2022/11/08 11:59:21;;;;;;;11.23;2.10;;;17.20;73.40;;;;;;4960292;29;20035;-79
2022/11/08 12:01:58;;;;;;;9.40;1.77;;;17.20;74.00;;;;;;4960244;29;20034;-78
2022/11/08 12:05:08;;;;;;;12.70;2.55;;;17.20;73.40;;;;;;4958977;29;20065;-78
2022/11/08 12:07:43;;;;;;;8.00;2.35;;;17.20;72.90;;;;;;4958725;29;20047;-78
2022/11/08 12:10:37;;;;;;;8.20;1.42;;;17.10;72.60;;;;;;4959898;28;20027;-78
2022/11/08 12:13:11;;;;;;;8.52;1.92;;;17.20;72.70;;;;;;4940960;29;20027;-78
2022/11/08 12:15:59;;;;;;;9.07;1.67;;;17.10;72.30;;;;;;4940781;29;20032;-78
2022/11/08 12:18:28;;;;;;;7.28;1.48;;;17.10;72.10;;;;;;4936609;29;20048;-78
2022/11/08 12:21:00;;;;;;;15.70;2.35;;;17.10;72.70;;;;;;4951771;29;20031;-78
2022/11/08 12:23:35;;;;;;;14.00;3.03;;;17.20;72.90;;;;;;4959828;29;20030;-78
2022/11/08 12:26:32;;;;;;;10.02;2.20;;;17.20;72.10;;;;;;4959854;29;20027;-78
2022/11/08 12:29:31;;;;;;;8.25;1.42;;;17.20;71.60;;;;;;4969212;28;20031;-78
2022/11/08 12:31:57;;;;;;;12.10;1.52;;;17.20;71.50;;;;;;4966096;28;20051;-78
2022/11/08 12:34:26;;;;;;;3.58;1.13;;;17.20;70.80;;;;;;4959534;29;20027;-78
2022/11/08 12:37:03;;;;;;;6.13;2.35;;;17.10;71.40;;;;;;4947877;29;20043;-79
2022/11/08 12:39:44;;;;;;;7.80;1.70;;;17.10;70.70;;;;;;4940421;29;20024;-79
2022/11/08 12:42:18;;;;;;;17.05;2.00;;;17.10;70.40;;;;;;4948731;29;20106;-78
2022/11/08 12:44:59;;;;;;;6.07;1.20;;;17.10;70.70;;;;;;4959455;29;20058;-79
2022/11/08 12:47:52;;;;;;;10.65;1.63;;;17.10;70.50;;;;;;4959156;28;20028;-78
2022/11/08 12:50:37;;;;;;;8.50;1.70;;;17.10;70.20;;;;;;4959219;29;20035;-78
2022/11/08 12:53:28;;;;;;;9.75;1.80;;;17.20;70.40;;;;;;4959270;29;20500;-78
2022/11/08 12:55:56;;;;;;;12.38;1.55;;;17.20;70.60;;;;;;4944991;29;20058;-78
2022/11/08 12:58:25;;;;;;;10.20;1.80;;;17.30;69.90;;;;;;4941049;29;20035;-79
2022/11/08 13:00:55;;;;;;;8.50;1.45;;;17.40;69.80;;;;;;4957603;29;20087;-77
2022/11/08 13:03:21;;;;;;;;;;;17.50;70.20;;;;;;4957921;29;20042;-78
2022/11/08 13:06:10;;;;;;;11.75;2.22;;;17.40;70.10;;;;;;4944382;29;20390;-78
2022/11/08 13:09:05;;;;;;;11.77;1.73;;;17.50;69.70;;;;;;4939724;29;20078;-78
2022/11/08 13:11:43;;;;;;;14.95;1.75;;;17.40;70.40;;;;;;4951368;29;20065;-78
2022/11/08 13:14:13;;;;;;;9.50;2.10;;;17.40;70.10;;;;;;4959254;29;20402;-78
2022/11/08 13:16:43;;;;;;;8.77;2.08;;;17.40;70.10;;;;;;4952807;29;20119;-78
2022/11/08 13:19:48;;;;;;;13.60;1.80;;;17.50;70.20;;;;;;4938227;29;20171;-78
2022/11/08 13:22:32;;;;;;;5.00;0.98;;;17.50;69.80;;;;;;4939572;29;20024;-78
2022/11/08 13:25:05;;;;;;;10.57;2.30;;;17.60;69.20;;;;;;4939259;29;20552;-79
2022/11/08 13:27:42;;;;;;;7.53;1.88;;;17.60;69.10;;;;;;4939500;29;20499;-78
2022/11/08 13:30:10;;;;;;;9.45;1.73;;;17.60;69.40;;;;;;4939373;29;20066;-79
2022/11/08 13:32:42;;;;;;;8.00;1.40;;;17.40;68.40;;;;;;4939375;29;20441;-78
2022/11/08 13:35:08;;;;;;;7.30;1.38;;;17.40;68.90;;;;;;4938877;29;20067;-78
2022/11/08 13:37:52;;;;;;;8.48;1.92;;;17.40;69.20;;;;;;4939385;29;20023;-78
2022/11/08 13:40:32;;;;;;;14.75;2.17;;;17.40;69.10;;;;;;4938212;29;20048;-78
2022/11/08 13:43:19;;;;;;;6.05;1.50;;;17.40;69.40;;;;;;4939132;29;20032;-78
2022/11/08 13:45:45;;;;;;;12.32;1.60;;;17.30;69.30;;;;;;4921598;29;20154;-78
2022/11/08 13:48:23;;;;;;;14.30;2.28;;;17.30;68.80;;;;;;4939157;29;20042;-79
2022/11/08 13:51:23;;;;;;;14.23;2.67;;;17.30;67.90;;;;;;4939427;29;20031;-78
2022/11/08 13:53:53;;;;;;;8.75;1.33;;;17.30;67.50;;;;;;4924770;29;20063;-78
2022/11/08 13:56:24;;;;;;;;;;;17.30;67.70;;;;;;4939478;29;20041;-78
2022/11/08 13:58:50;;;;;;;9.05;2.08;;;17.40;68.40;;;;;;4938599;29;20370;-78
2022/11/08 14:01:22;;;;;;;4.88;1.10;;;17.30;68.10;;;;;;4936722;29;20114;-78
2022/11/08 14:03:47;;;;;;;7.70;1.60;;;17.50;68.10;;;;;;4939065;29;20510;-78
2022/11/08 14:06:24;;;;;;;9.13;1.50;;;17.50;67.60;;;;;;4938905;29;20031;-78
2022/11/08 14:09:02;;;;;;;9.82;1.88;;;17.50;67.70;;;;;;4937723;29;20024;-78
2022/11/08 14:11:51;;;;;;;7.95;1.27;;;17.40;67.20;;;;;;4937312;29;20039;-78
2022/11/08 14:14:23;;;;;;;7.75;1.75;;;17.30;68.00;;;;;;4938726;29;20079;-78
2022/11/08 14:17:12;;;;;;;8.98;1.38;;;17.30;68.10;;;;;;4937403;29;20043;-78
2022/11/08 14:19:40;;;;;;;7.00;2.10;;;17.30;67.80;;;;;;4928683;29;20059;-78
2022/11/08 14:22:12;;;;;;;8.48;1.30;;;17.30;68.00;;;;;;4938727;29;20028;-79
2022/11/08 14:24:38;;;;;;;11.10;1.40;;;17.30;68.10;;;;;;4939707;29;20566;-78
2022/11/08 14:27:04;;;;;;;11.05;1.35;;;17.40;68.50;;;;;;4938645;29;20028;-78
2022/11/08 14:29:30;;;;;;;7.38;1.52;;;17.50;68.40;;;;;;4920479;29;20152;-78
2022/11/08 14:32:25;;;;;;;9.23;1.42;;;17.60;67.50;;;;;;4952875;29;20102;-78
2022/11/08 14:34:50;;;;;;;13.85;1.98;;;17.60;67.70;;;;;;4925879;29;20062;-78
2022/11/08 14:37:24;;;;;;;5.65;1.45;;;17.60;66.20;;;;;;4938733;29;20028;-78
2022/11/08 14:39:51;;;;;;;5.55;0.80;;;17.50;66.00;;;;;;4938518;29;20072;-78
2022/11/08 14:42:24;;;;;;;6.25;1.00;;;17.30;66.10;;;;;;4947764;29;20038;-78
2022/11/08 14:44:55;;;;;;;8.43;1.52;;;17.20;67.00;;;;;;4949661;28;20123;-78
2022/11/08 14:47:31;;;;;;;4.80;0.93;;;17.20;67.30;;;;;;4940301;29;20126;-79
2022/11/08 14:49:58;;;;;;;6.10;1.20;;;17.20;67.60;;;;;;4957318;29;20039;-78
2022/11/08 14:52:31;;;;;;;9.05;2.08;;;17.30;67.50;;;;;;4944677;29;20100;-78
2022/11/08 14:55:06;;;;;;;6.65;1.38;;;17.30;67.80;;;;;;4938143;29;20039;-79
2022/11/08 14:57:41;;;;;;;7.72;1.80;;;17.30;67.70;;;;;;4937336;29;20031;-78
2022/11/08 15:00:17;;;;;;;9.88;2.00;;;17.30;68.20;;;;;;4952035;29;20487;-78
2022/11/08 15:02:57;;;;;;;8.57;2.65;;;17.20;68.60;;;;;;4957643;29;20031;-79
2022/11/08 15:05:36;;;;;;;4.60;1.55;;;17.10;69.30;;;;;;4957218;29;20035;-78
2022/11/08 15:08:06;;;;;;;6.00;1.48;;;17.10;69.60;;;;;;4957325;29;20034;-78
2022/11/08 15:10:32;;;;;;;8.05;1.25;;;17.00;69.70;;;;;;4947209;28;20022;-78
2022/11/08 15:12:58;;;;;;;14.13;1.80;;;16.90;70.10;;;;;;4963142;28;20161;-78
2022/11/08 15:15:28;;;;;;;11.75;2.42;;;17.00;70.10;;;;;;4962810;28;20636;-78
2022/11/08 15:18:16;;;;;;;10.07;2.05;;;17.00;70.30;;;;;;4961198;29;20118;-77
2022/11/08 15:21:14;;;;;;;6.93;1.05;;;17.10;70.30;;;;;;4955622;29;20031;-78
2022/11/08 15:23:45;;;;;;;11.30;1.88;;;17.00;70.70;;;;;;4919342;29;20088;-78
2022/11/08 15:26:29;;;;;;;12.38;2.80;;;16.90;70.70;;;;;;4949799;29;20027;-78
2022/11/08 15:29:06;;;;;;;8.10;1.33;;;16.90;71.20;;;;;;4959604;29;20031;-79
2022/11/08 15:31:40;;;;;;;11.20;1.90;;;16.80;71.40;;;;;;4959773;29;20043;-78
2022/11/08 15:34:17;;;;;;;15.50;2.35;;;16.80;71.70;;;;;;4960716;29;20054;-78
2022/11/08 15:36:43;;;;;;;8.63;1.58;;;16.80;71.90;;;;;;4959514;29;20067;-78
2022/11/08 15:39:20;;;;;;;9.65;1.88;;;16.70;72.20;;;;;;4960711;29;20059;-78
2022/11/08 15:42:01;;;;;;;11.07;2.03;;;16.70;72.30;;;;;;4947864;28;20066;-78
2022/11/08 15:44:27;;;;;;;8.80;1.48;;;16.60;72.60;;;;;;4961796;28;20039;-78
2022/11/08 15:46:54;;;;;;;19.27;2.08;;;16.60;72.80;;;;;;4943576;29;20474;-78
2022/11/08 15:49:25;;;;;;;5.53;1.40;;;16.60;72.90;;;;;;4941633;29;20030;-78
2022/11/08 15:51:53;;;;;;;13.77;1.83;;;16.60;73.20;;;;;;4941401;29;20063;-78
2022/11/08 15:54:20;;;;;;;9.18;1.58;;;16.70;73.30;;;;;;4955578;29;20035;-78
2022/11/08 15:56:48;;;;;;;14.23;2.22;;;16.60;73.40;;;;;;4960352;29;20023;-78
2022/11/08 15:59:16;;;;;;;10.55;1.80;;;16.60;73.50;;;;;;4943078;29;20487;-78
2022/11/08 16:01:53;;;;;;;5.80;1.67;;;16.50;73.60;;;;;;4941211;29;20032;-79
2022/11/08 16:04:19;;;;;;;5.90;1.63;;;16.50;73.70;;;;;;4940959;29;20495;-78
2022/11/08 16:06:44;;;;;;;6.60;1.80;;;16.40;73.70;;;;;;4940178;29;20110;-78
2022/11/08 16:09:10;;;;;;;12.02;1.80;;;16.40;74.00;;;;;;4940754;29;20455;-78
2022/11/08 16:11:37;;;;;;;9.20;2.00;;;16.40;73.70;;;;;;4965867;28;20035;-78
2022/11/08 16:14:05;;;;;;;11.23;2.08;;;16.30;73.80;;;;;;4979345;28;20029;-79
2022/11/08 16:16:33;;;;;;;8.85;1.60;;;16.30;73.90;;;;;;4951164;28;20032;-78
2022/11/08 16:18:58;;;;;;;7.25;1.75;;;16.30;74.20;;;;;;4939377;29;20024;-78
2022/11/08 16:21:24;;;;;;;7.22;1.50;;;16.30;74.10;;;;;;4940539;29;20500;-78
2022/11/08 16:23:50;;;;;;;9.98;1.70;;;16.30;74.30;;;;;;4940555;29;20024;-78
2022/11/08 16:26:16;;;;;;;11.70;1.67;;;16.20;74.40;;;;;;4941350;28;20031;-78
2022/11/08 16:28:43;;;;;;;8.80;1.90;;;16.20;74.60;;;;;;4941446;29;20027;-78
2022/11/08 16:31:14;;;;;;;12.23;1.90;;;16.20;74.60;;;;;;4928880;29;20438;-80
2022/11/08 16:33:42;;;;;;;10.02;2.33;;;16.20;74.70;;;;;;4941730;29;20177;-79
2022/11/08 16:36:22;;;;;;;8.15;1.45;;;16.20;74.70;;;;;;4943331;29;20151;-78
2022/11/08 16:38:52;;;;;;;;;;;16.10;75.00;;;;;;4944401;29;20028;-78
2022/11/08 16:41:19;;;;;;;13.88;2.10;;;16.10;75.00;;;;;;4947967;29;19917;-79
2022/11/08 16:43:44;;;;;;;4.63;1.33;;;16.10;75.10;;;;;;4946656;29;20031;-79
2022/11/08 16:46:12;;;;;;;13.52;1.83;;;16.10;75.20;;;;;;4943624;29;20110;-79
2022/11/08 16:48:39;;;;;;;11.25;1.80;;;16.10;75.20;;;;;;4923384;29;20119;-78
2022/11/08 16:51:22;;;;;;;14.63;2.35;;;16.10;75.30;;;;;;4937977;29;20059;-79
2022/11/08 16:53:48;;;;;;;7.55;1.33;;;16.10;75.40;;;;;;4939284;29;20027;-79
2022/11/08 16:56:14;;;;;;;9.50;2.25;;;16.10;75.40;;;;;;4922843;29;20391;-78
2022/11/08 16:58:41;;;;;;;10.68;2.80;;;16.00;75.60;;;;;;4939097;29;20032;-78
2022/11/08 17:01:12;;;;;;;15.63;2.28;;;16.00;75.70;;;;;;4938847;29;20024;-79
2022/11/08 17:03:38;;;;;;;6.45;1.58;;;16.00;75.80;;;;;;4933980;29;20038;-79
2022/11/08 17:06:03;;;;;;;12.98;3.47;;;16.00;75.90;;;;;;4936746;29;20020;-80
2022/11/08 17:08:29;;;;;;;11.57;1.70;;;16.00;76.10;;;;;;4938795;29;20550;-79
2022/11/08 17:10:55;;;;;;;8.68;2.58;;;16.00;76.30;;;;;;4938665;29;20024;-80
2022/11/08 17:13:21;;;;;;;9.13;1.98;;;16.00;76.40;;;;;;4937667;29;20035;-81
2022/11/08 17:15:48;;;;;;;8.27;1.63;;;16.00;76.40;;;;;;4938553;29;20032;-79
2022/11/08 17:18:19;;;;;;;12.18;2.63;;;16.00;76.50;;;;;;4946553;29;20027;-80
2022/11/08 17:20:45;;;;;;;8.10;1.83;;;16.00;76.40;;;;;;4955949;29;20075;-81
2022/11/08 17:23:11;;;;;;;8.77;1.52;;;15.90;76.40;;;;;;4939813;29;20031;-87
2022/11/08 17:25:41;;;;;;;7.22;1.85;;;15.80;76.20;;;;;;4919860;29;20031;-79
2022/11/08 17:28:08;;;;;;;6.90;2.35;;;15.80;76.20;;;;;;4934368;29;20639;-79
2022/11/08 17:30:34;;;;;;;10.43;2.35;;;15.80;76.00;;;;;;4938241;28;20050;-80
2022/11/08 17:33:00;;;;;;;5.93;1.55;;;15.80;75.70;;;;;;4938569;28;20043;-80
2022/11/08 17:35:25;;;;;;;7.25;2.40;;;15.80;75.30;;;;;;4945191;28;20032;-80
2022/11/08 17:37:52;;;;;;;7.32;2.05;;;15.80;74.80;;;;;;4957590;28;20106;-79
2022/11/08 17:40:18;;;;;;;6.85;1.15;;;15.80;74.60;;;;;;4941311;28;20481;-80
2022/11/08 17:42:46;;;;;;;8.07;1.73;;;15.80;73.90;;;;;;4962557;28;20055;-80
2022/11/08 17:45:12;;;;;;;6.18;1.70;;;15.70;73.70;;;;;;4945020;28;20035;-80
2022/11/08 17:47:38;;;;;;;8.05;1.63;;;15.60;73.10;;;;;;4950926;29;20038;-81
2022/11/08 17:50:04;;;;;;;5.72;1.42;;;15.60;72.70;;;;;;4936834;29;20086;-80
2022/11/08 17:52:30;;;;;;;4.70;1.08;;;15.60;72.60;;;;;;4954595;29;20109;-82
2022/11/08 17:54:56;;;;;;;8.30;1.60;;;15.60;72.60;;;;;;4951751;28;20034;-80
2022/11/08 17:57:21;;;;;;;6.68;1.48;;;15.60;72.20;;;;;;4939207;29;20039;-80
2022/11/08 17:59:47;;;;;;;5.45;1.27;;;15.60;72.20;;;;;;4954875;29;20751;-80
2022/11/08 18:02:13;;;;;;;5.28;1.25;;;15.50;72.10;;;;;;4933374;29;20035;-80
2022/11/08 18:04:39;;;;;;;7.93;1.80;;;15.50;71.70;;;;;;4954689;29;20031;-81
2022/11/08 18:07:05;;;;;;;6.00;1.48;;;15.50;71.70;;;;;;4950648;29;20050;-81
2022/11/08 18:09:31;;;;;;;10.48;2.13;;;15.50;71.60;;;;;;4955143;29;20545;-80
2022/11/08 18:11:57;;;;;;;6.10;1.17;;;15.50;71.20;;;;;;4952393;28;20070;-80
2022/11/08 18:14:27;;;;;;;3.13;1.27;;;15.40;71.20;;;;;;4959101;28;20031;-80
2022/11/08 18:16:56;;;;;;;7.93;1.73;;;15.30;71.00;;;;;;4955810;28;20027;-82
2022/11/08 18:19:22;;;;;;;4.63;1.42;;;15.30;71.30;;;;;;4945765;28;20770;-90
2022/11/08 18:21:47;;;;;;;3.35;1.05;;;15.30;71.10;;;;;;4939320;29;20037;-77
2022/11/08 18:24:13;;;;;;;5.80;1.27;;;15.20;71.20;;;;;;4955297;29;20102;-85
2022/11/08 18:26:39;;;;;;;8.75;2.05;;;15.20;71.50;;;;;;4946821;28;20042;-78
2022/11/08 18:29:05;;;;;;;5.55;1.60;;;15.20;71.40;;;;;;4965122;28;20082;-78
2022/11/08 18:31:31;;;;;;;5.18;1.23;;;15.30;71.30;;;;;;4954552;29;20043;-77